createdAt,value
2022-08-24T00:14:18.520Z,4422.229
2022-08-24T00:29:20.752Z,2922.48828
2022-08-24T00:44:22.939Z,1638.54541
2022-08-24T00:59:25.165Z,1265.50793
2022-08-24T01:14:27.393Z,1084.41125
2022-08-24T01:29:29.577Z,1099.59302
2022-08-24T01:44:33.206Z,765.59436
2022-08-24T01:59:35.468Z,464.12802
2022-08-24T02:14:37.692Z,349.18042
2022-08-24T02:29:40.048Z,171.33698
2022-08-24T02:44:42.343Z,73.73997
2022-08-24T02:59:44.556Z,21.68822
2022-08-24T03:14:46.750Z,2.16882
2022-08-24T03:29:48.912Z,0
2022-08-24T03:44:52.319Z,0
2022-08-24T03:59:54.516Z,0
2022-08-24T04:14:56.728Z,0
2022-08-24T04:29:58.968Z,0
2022-08-24T04:45:01.230Z,0
2022-08-24T05:00:03.541Z,0
2022-08-24T05:15:05.703Z,0
2022-08-24T05:30:07.914Z,0
2022-08-24T05:45:10.126Z,0
2022-08-24T06:00:12.339Z,0
2022-08-24T06:15:14.512Z,0
2022-08-24T06:30:16.754Z,0
2022-08-24T06:45:18.944Z,0
2022-08-24T07:00:21.129Z,0
2022-08-24T07:15:23.367Z,0
2022-08-24T07:30:27.270Z,0
2022-08-24T07:45:30.375Z,0
2022-08-24T08:00:32.624Z,0
2022-08-24T08:15:34.948Z,0
2022-08-24T08:30:38.264Z,0
2022-08-24T08:45:40.641Z,0
2022-08-24T09:00:42.908Z,0
2022-08-24T09:15:45.143Z,0
2022-08-24T09:30:47.723Z,0
2022-08-24T09:45:52.068Z,0
2022-08-24T10:00:54.779Z,0
2022-08-24T10:15:59.257Z,0
2022-08-24T10:31:01.496Z,0
2022-08-24T10:46:03.909Z,0
2022-08-24T11:01:06.197Z,0
2022-08-24T11:16:08.717Z,0
2022-08-24T11:31:11.013Z,0
2022-08-24T11:46:13.342Z,0
2022-08-24T12:01:15.617Z,0
2022-08-24T12:16:17.862Z,0
2022-08-24T12:31:20.169Z,2.16882
2022-08-24T12:46:22.463Z,21.68822
2022-08-24T13:01:26.961Z,107.35671
2022-08-24T13:16:32.158Z,255.92105
2022-08-24T13:31:34.513Z,431.59567
2022-08-24T13:46:37.167Z,604.01709
2022-08-24T14:01:39.712Z,2827.06006
2022-08-24T14:16:42.002Z,1844.58362
2022-08-24T14:31:45.870Z,3666.39453
2022-08-24T14:46:48.370Z,2336.90625
2022-08-24T15:01:50.665Z,3194.67554
2022-08-24T15:16:53.295Z,4426.56689
2022-08-24T15:31:56.309Z,5992.45654
2022-08-24T15:46:58.579Z,5463.26416
2022-08-24T16:02:00.756Z,5259.39453
2022-08-24T16:17:03.049Z,5795.09375
2022-08-24T16:32:05.518Z,6280.91016
2022-08-24T16:47:07.859Z,6121.50146
2022-08-24T17:02:10.124Z,6054.26807
2022-08-24T17:17:12.455Z,6216.92969
2022-08-24T17:32:14.880Z,6369.83154
2022-08-24T17:47:17.140Z,6296.0918
2022-08-24T18:02:19.409Z,4721.52686
2022-08-24T18:17:22.793Z,7569.19043
2022-08-24T18:32:30.984Z,2687.17114
2022-08-24T18:47:34.303Z,2116.77075
2022-08-24T19:02:36.797Z,2591.74292
2022-08-24T19:17:39.253Z,2811.87842
2022-08-24T19:32:41.473Z,2541.86011
2022-08-24T19:47:43.689Z,2356.42578
2022-08-24T20:02:46.047Z,4054.61377
2022-08-24T20:17:48.343Z,3490.71997
2022-08-24T20:32:50.531Z,4973.10986
2022-08-24T20:47:52.734Z,6723.34961
2022-08-24T21:02:54.984Z,9912.60352
2022-08-24T21:17:57.231Z,5627.01025
2022-08-24T21:32:59.515Z,4543.68311
2022-08-24T21:48:01.945Z,3488.55103
2022-08-24T22:03:04.515Z,3463.60962
2022-08-24T22:18:07.093Z,3516.74561
2022-08-24T22:33:09.362Z,7504.12598
2022-08-24T22:48:11.766Z,8296.83105
2022-08-24T23:03:14.342Z,11833.0957
2022-08-24T23:18:16.673Z,14674.25293
2022-08-24T23:33:18.873Z,14807.63574
2022-08-24T23:48:22.105Z,6768.89502
